Terminal Aerodrome Forecast
Issued by NWS

Home | Current Version | Previous Version | Text Only | Print | Product List | Glossary On
Versions: 1 2 3 4 5 6 7 8 9 10 11 12 13 14 15 16 17 18 19 20 21 22
746
FTUS43 KLOT 250237 AAA
TAFDPA
TAF AMD
KDPA 250237Z 2503/2524 19008KT P6SM BKN250
     FM250900 18003KT 4SM BR BKN150
     FM251400 15008KT P6SM SCT040 BKN150
     FM252100 17010KT P6SM VCSH SCT040 BKN200
      TEMPO 2521/2524 4SM TSRA SCT030 OVC040CB=

USA.gov is the U.S. government's official web portal to all federal, state and local government web resources and services.